createdAt,value
2023-05-12T00:00:33.913Z,25.43
2023-05-12T00:03:57.895Z,23.57
2023-05-12T00:07:22.966Z,24.70
2023-05-12T00:10:46.746Z,23.80
2023-05-12T00:14:10.451Z,24.90
2023-05-12T00:17:34.061Z,24.67
2023-05-12T00:20:58.068Z,22.47
2023-05-12T00:24:23.036Z,24.30
2023-05-12T00:27:46.910Z,25.10
2023-05-12T00:31:10.505Z,24.50
2023-05-12T00:34:34.202Z,25.47
2023-05-12T00:37:57.769Z,25.67
2023-05-12T00:41:22.796Z,23.50
2023-05-12T00:44:47.166Z,24.37
2023-05-12T00:48:11.053Z,22.67
2023-05-12T00:51:34.980Z,22.47
2023-05-12T00:54:59.154Z,22.77
2023-05-12T00:58:24.317Z,21.27
2023-05-12T01:01:48.499Z,21.47
2023-05-12T01:05:13.348Z,20.40
2023-05-12T01:08:38.747Z,18.80
2023-05-12T01:12:02.449Z,20.30
2023-05-12T01:15:30.890Z,19.23
2023-05-12T01:18:57.089Z,18.53
2023-05-12T01:22:22.265Z,19.83
2023-05-12T01:25:49.730Z,19.60
2023-05-12T01:29:14.977Z,18.60
2023-05-12T01:32:40.722Z,21.50
2023-05-12T01:36:05.266Z,19.30
2023-05-12T01:39:29.617Z,18.53
2023-05-12T01:42:53.382Z,19.50
2023-05-12T01:46:18.389Z,17.37
2023-05-12T01:49:42.256Z,20.20
2023-05-12T01:53:10.549Z,16.47
2023-05-12T01:56:34.444Z,16.30
2023-05-12T01:59:58.022Z,18.00
2023-05-12T02:03:23.239Z,16.60
2023-05-12T02:06:47.008Z,17.90
2023-05-12T02:10:10.929Z,17.70
2023-05-12T02:13:34.868Z,16.20
2023-05-12T02:16:58.577Z,18.50
2023-05-12T02:20:24.100Z,16.93
2023-05-12T02:23:47.758Z,17.33
2023-05-12T02:27:11.325Z,19.73
2023-05-12T02:30:34.906Z,17.27
2023-05-12T02:33:58.889Z,18.63
2023-05-12T02:37:24.180Z,17.50
2023-05-12T02:40:48.429Z,18.90
2023-05-12T02:44:12.722Z,17.60
2023-05-12T02:47:36.490Z,20.50
2023-05-12T02:51:00.235Z,18.50
2023-05-12T02:54:25.295Z,17.93
2023-05-12T02:57:49.032Z,16.57
2023-05-12T03:01:12.766Z,16.40
2023-05-12T03:04:38.595Z,16.87
2023-05-12T03:08:02.206Z,16.10
2023-05-12T03:11:27.276Z,16.90
2023-05-12T03:14:51.144Z,16.33
2023-05-12T03:18:16.040Z,15.70
2023-05-12T03:21:39.751Z,13.87
2023-05-12T03:25:04.983Z,16.23
2023-05-12T03:28:30.288Z,15.80
2023-05-12T03:31:54.053Z,15.00
2023-05-12T03:35:18.119Z,15.23
2023-05-12T03:38:41.699Z,16.90
2023-05-12T03:42:06.001Z,15.17
2023-05-12T03:45:32.091Z,14.00
2023-05-12T03:48:55.733Z,14.87
2023-05-12T03:52:19.535Z,15.00
2023-05-12T03:55:43.293Z,15.10
2023-05-12T03:59:07.319Z,14.70
2023-05-12T04:02:32.634Z,14.17
2023-05-12T04:06:00.189Z,15.53
2023-05-12T04:09:23.875Z,14.73
2023-05-12T04:12:47.532Z,16.40
2023-05-12T04:16:11.643Z,15.60
2023-05-12T04:19:36.696Z,17.40
2023-05-12T04:23:00.261Z,15.87
2023-05-12T04:26:23.936Z,17.80
2023-05-12T04:29:47.696Z,17.13
2023-05-12T04:33:12.413Z,15.87
2023-05-12T04:36:38.383Z,16.50
2023-05-12T04:40:02.881Z,18.77
2023-05-12T04:46:56.220Z,18.17
2023-05-12T04:50:20.068Z,17.80
2023-05-12T04:53:45.924Z,17.53
2023-05-12T04:57:09.798Z,15.00
2023-05-12T05:00:34.245Z,15.20
2023-05-12T05:03:58.454Z,15.43
2023-05-12T05:07:22.360Z,15.67
2023-05-12T05:10:48.124Z,13.17
2023-05-12T05:14:12.553Z,13.07
2023-05-12T05:17:36.351Z,15.80
2023-05-12T05:21:01.805Z,14.20
2023-05-12T05:24:25.629Z,14.27
2023-05-12T05:27:51.088Z,14.37
2023-05-12T05:31:17.419Z,12.90
2023-05-12T05:34:41.230Z,12.93
2023-05-12T05:38:05.184Z,13.50
2023-05-12T05:41:29.099Z,12.80
2023-05-12T05:44:54.177Z,12.20
2023-05-12T05:48:17.962Z,12.53
2023-05-12T05:51:42.938Z,11.67
2023-05-12T05:55:07.937Z,12.60
2023-05-12T05:58:32.303Z,12.07
2023-05-12T06:01:59.824Z,12.43
2023-05-12T06:05:23.798Z,11.67
2023-05-12T06:08:47.789Z,13.53
2023-05-12T06:12:11.466Z,12.23
2023-05-12T06:15:35.324Z,12.60
2023-05-12T06:19:00.459Z,12.27
2023-05-12T06:22:24.942Z,12.70
2023-05-12T06:25:50.488Z,12.60
2023-05-12T06:29:15.120Z,12.67
2023-05-12T06:32:38.824Z,13.63
2023-05-12T06:36:04.290Z,12.87
2023-05-12T06:39:29.469Z,14.17
2023-05-12T06:42:53.043Z,13.70
2023-05-12T06:46:17.761Z,12.03
2023-05-12T06:49:41.379Z,13.80
2023-05-12T06:53:07.853Z,12.90
2023-05-12T06:56:31.748Z,12.20
2023-05-12T06:59:55.324Z,12.47
2023-05-12T07:03:18.955Z,12.60
2023-05-12T07:06:42.597Z,12.97
2023-05-12T07:10:09.124Z,12.57
2023-05-12T07:13:32.867Z,12.33
2023-05-12T07:16:56.566Z,10.63
2023-05-12T07:20:20.146Z,10.57
2023-05-12T07:23:44.121Z,9.23
2023-05-12T07:27:09.256Z,9.20
2023-05-12T07:30:33.077Z,8.50
2023-05-12T07:33:56.969Z,7.53
2023-05-12T07:37:20.496Z,9.30
2023-05-12T07:40:44.635Z,7.80
2023-05-12T07:44:09.498Z,7.30
2023-05-12T07:47:33.149Z,7.23
2023-05-12T07:50:57.361Z,6.30
2023-05-12T07:54:21.184Z,6.70
2023-05-12T07:57:44.870Z,7.00
2023-05-12T08:01:10.224Z,6.90
2023-05-12T08:04:33.978Z,6.93
2023-05-12T08:07:57.934Z,8.10
2023-05-12T08:11:21.832Z,7.70
2023-05-12T08:14:45.674Z,6.60
2023-05-12T08:18:11.070Z,6.50
2023-05-12T08:21:34.890Z,6.80
2023-05-12T08:24:58.516Z,6.50
2023-05-12T08:28:22.126Z,5.70
2023-05-12T08:31:45.912Z,5.90
2023-05-12T08:35:11.184Z,6.20
2023-05-12T08:38:34.933Z,6.13
2023-05-12T08:42:09.281Z,6.10
2023-05-12T08:45:33.983Z,5.63
2023-05-12T08:49:01.813Z,4.50
2023-05-12T08:52:28.056Z,3.40
2023-05-12T08:57:09.699Z,4.40
2023-05-12T08:59:39.009Z,3.73
2023-05-12T09:03:05.272Z,4.40
2023-05-12T09:06:29.462Z,4.10
2023-05-12T09:09:59.020Z,3.83
2023-05-12T09:13:29.589Z,4.50
2023-05-12T09:17:01.345Z,4.00
2023-05-12T09:20:31.289Z,4.30
2023-05-12T09:24:00.105Z,3.93
2023-05-12T09:27:31.009Z,4.47
2023-05-12T09:30:56.217Z,4.03
2023-05-12T09:34:27.752Z,4.43
2023-05-12T09:37:51.568Z,4.00
2023-05-12T09:41:23.221Z,4.20
2023-05-12T09:44:48.473Z,4.93
2023-05-12T09:48:13.781Z,5.00
2023-05-12T09:51:37.338Z,4.57
2023-05-12T09:55:12.161Z,5.03
2023-05-12T09:58:37.552Z,4.40
2023-05-12T10:02:05.217Z,5.30
2023-05-12T10:05:30.206Z,5.73
2023-05-12T10:09:00.225Z,4.53
2023-05-12T10:12:23.997Z,5.23
2023-05-12T10:15:49.393Z,5.13
2023-05-12T10:19:15.044Z,5.80
2023-05-12T10:22:40.412Z,5.33
2023-05-12T10:26:05.124Z,5.07
2023-05-12T10:29:31.027Z,4.63
2023-05-12T10:32:54.601Z,4.30
2023-05-12T10:36:20.266Z,5.30
2023-05-12T10:39:49.313Z,4.60
2023-05-12T10:43:23.749Z,4.33
2023-05-12T10:46:58.514Z,4.30
2023-05-12T10:50:28.977Z,4.47
2023-05-12T10:53:57.139Z,4.70
2023-05-12T10:57:22.171Z,3.90
2023-05-12T11:00:48.843Z,4.70
2023-05-12T11:04:14.812Z,5.50
2023-05-12T11:07:39.787Z,4.60
2023-05-12T11:11:06.264Z,4.87
2023-05-12T11:14:30.062Z,4.00
2023-05-12T11:17:53.794Z,4.50
2023-05-12T11:21:17.540Z,4.40
2023-05-12T11:24:42.723Z,4.43
2023-05-12T11:28:12.663Z,4.63
2023-05-12T11:31:36.369Z,4.00
2023-05-12T11:35:12.554Z,4.80
2023-05-12T11:38:36.958Z,4.80
2023-05-12T11:42:12.286Z,5.93
2023-05-12T11:45:38.920Z,6.10
2023-05-12T11:49:04.118Z,4.37
2023-05-12T11:52:28.649Z,4.37
2023-05-12T11:55:53.748Z,4.10
2023-05-12T11:59:29.260Z,5.23
2023-05-12T12:02:54.417Z,4.80
2023-05-12T12:06:21.114Z,4.20
2023-05-12T12:09:45.850Z,4.70
2023-05-12T12:13:09.428Z,4.40
2023-05-12T12:16:33.428Z,4.60
2023-05-12T12:19:58.496Z,5.00
2023-05-12T12:23:22.361Z,3.80
2023-05-12T12:26:45.965Z,4.43
2023-05-12T12:30:10.785Z,3.83
2023-05-12T12:33:34.447Z,4.50
2023-05-12T12:36:59.410Z,3.93
2023-05-12T12:40:22.982Z,5.37
2023-05-12T12:43:46.539Z,4.60
2023-05-12T12:47:10.192Z,4.30
2023-05-12T12:50:33.958Z,4.00
2023-05-12T12:53:58.936Z,4.10
2023-05-12T12:57:23.015Z,4.50
2023-05-12T13:00:46.633Z,4.23
2023-05-12T13:04:10.388Z,4.43
2023-05-12T13:07:34.449Z,3.97
2023-05-12T13:11:00.241Z,5.20
2023-05-12T13:14:24.291Z,4.00
2023-05-12T13:17:48.125Z,4.33
2023-05-12T13:21:12.269Z,4.20
2023-05-12T13:24:36.309Z,6.40
2023-05-12T13:28:01.657Z,4.30
2023-05-12T13:31:25.929Z,4.70
2023-05-12T13:34:49.701Z,3.50
2023-05-12T13:38:13.479Z,4.60
2023-05-12T13:41:37.198Z,3.40
2023-05-12T13:45:02.129Z,3.70
2023-05-12T13:48:25.757Z,4.20
2023-05-12T13:51:49.340Z,3.90
2023-05-12T13:55:18.618Z,3.80
2023-05-12T13:58:44.977Z,3.27
2023-05-12T14:02:11.977Z,3.80
2023-05-12T14:05:36.344Z,3.33
2023-05-12T14:09:00.156Z,3.73
2023-05-12T14:12:23.752Z,3.57
2023-05-12T14:15:49.803Z,3.57
2023-05-12T14:19:15.570Z,3.60
2023-05-12T14:22:39.239Z,4.67
2023-05-12T14:26:03.472Z,4.37
2023-05-12T14:29:27.127Z,4.60
2023-05-12T14:32:51.278Z,4.93
2023-05-12T14:36:16.180Z,4.90
2023-05-12T14:39:39.873Z,4.47
2023-05-12T14:43:03.495Z,5.43
2023-05-12T14:46:27.244Z,4.63
2023-05-12T14:49:51.151Z,4.87
2023-05-12T14:53:16.508Z,4.70
2023-05-12T14:56:41.679Z,5.80
2023-05-12T15:00:07.966Z,4.93
2023-05-12T15:03:33.588Z,4.43
2023-05-12T15:06:57.816Z,4.53
2023-05-12T15:10:22.987Z,4.10
2023-05-12T15:13:46.663Z,4.40
2023-05-12T15:17:10.453Z,5.00
2023-05-12T15:20:35.821Z,4.63
2023-05-12T15:23:59.392Z,4.97
2023-05-12T15:27:24.327Z,5.83
2023-05-12T15:30:55.586Z,4.50
2023-05-12T15:34:19.256Z,4.90
2023-05-12T15:37:42.888Z,4.83
2023-05-12T15:41:06.607Z,5.27
2023-05-12T15:44:32.624Z,4.90
2023-05-12T15:47:56.679Z,4.80
2023-05-12T15:51:20.536Z,4.70
2023-05-12T15:54:44.108Z,4.83
2023-05-12T15:58:09.016Z,5.20
2023-05-12T16:01:34.161Z,5.20
2023-05-12T16:04:58.363Z,4.07
2023-05-12T16:08:23.959Z,4.57
2023-05-12T16:11:48.761Z,4.33
2023-05-12T16:15:13.651Z,4.37
2023-05-12T16:18:39.902Z,5.30
2023-05-12T16:22:03.653Z,4.83
2023-05-12T16:25:27.423Z,4.93
2023-05-12T16:28:51.062Z,4.40
2023-05-12T16:32:14.742Z,4.00
2023-05-12T16:35:39.889Z,4.83
2023-05-12T16:39:03.590Z,4.50
2023-05-12T16:42:27.989Z,3.77
2023-05-12T16:46:00.170Z,3.40
2023-05-12T16:49:24.006Z,3.57
2023-05-12T16:52:49.013Z,3.50
2023-05-12T16:56:12.861Z,3.80
2023-05-12T16:59:38.193Z,4.00
2023-05-12T17:03:04.471Z,3.50
2023-05-12T17:06:28.412Z,3.43
2023-05-12T17:09:53.477Z,3.80
2023-05-12T17:13:17.629Z,3.53
2023-05-12T17:16:41.326Z,4.33
2023-05-12T17:20:06.010Z,3.23
2023-05-12T17:23:29.577Z,4.17
2023-05-12T17:26:54.869Z,3.60
2023-05-12T17:30:19.410Z,4.30
2023-05-12T17:33:43.136Z,3.90
2023-05-12T17:37:06.682Z,3.60
2023-05-12T17:40:30.243Z,4.33
2023-05-12T17:43:55.189Z,4.00
2023-05-12T17:47:18.854Z,4.10
2023-05-12T17:50:42.568Z,4.07
2023-05-12T17:54:06.228Z,3.90
2023-05-12T17:57:29.854Z,4.30
2023-05-12T18:00:55.084Z,4.13
2023-05-12T18:04:19.567Z,4.60
2023-05-12T18:07:43.220Z,3.97
2023-05-12T18:11:07.637Z,4.20
2023-05-12T18:14:31.392Z,3.70
2023-05-12T18:17:57.760Z,3.73
2023-05-12T18:21:21.486Z,4.13
2023-05-12T18:24:45.896Z,4.43
2023-05-12T18:28:09.618Z,4.40
2023-05-12T18:31:34.193Z,3.80
2023-05-12T18:34:59.388Z,4.80
2023-05-12T18:38:23.068Z,4.50
2023-05-12T18:41:46.793Z,4.90
2023-05-12T18:45:11.146Z,4.80
2023-05-12T18:48:34.782Z,4.30
2023-05-12T18:52:00.774Z,5.10
2023-05-12T18:55:24.572Z,5.00
2023-05-12T18:58:48.299Z,5.90
2023-05-12T19:02:11.954Z,4.87
2023-05-12T19:05:35.791Z,4.90
2023-05-12T19:09:00.840Z,5.43
2023-05-12T19:12:24.437Z,6.77
2023-05-12T19:15:47.996Z,5.60
2023-05-12T19:19:11.620Z,5.60
2023-05-12T19:22:35.400Z,6.50
2023-05-12T19:26:00.392Z,6.60
2023-05-12T19:29:24.185Z,5.80
2023-05-12T19:32:49.947Z,6.73
2023-05-12T19:36:13.697Z,6.33
2023-05-12T19:39:37.337Z,5.53
2023-05-12T19:43:02.285Z,5.83
2023-05-12T19:46:26.239Z,5.93
2023-05-12T19:49:53.615Z,6.70
2023-05-12T19:53:17.161Z,6.77
2023-05-12T19:56:40.775Z,7.17
2023-05-12T20:00:07.092Z,7.27
2023-05-12T20:03:35.987Z,7.97
2023-05-12T20:06:59.657Z,7.50
2023-05-12T20:10:23.356Z,6.27
2023-05-12T20:13:46.917Z,7.10
2023-05-12T20:17:12.697Z,8.17
2023-05-12T20:20:36.371Z,7.47
2023-05-12T20:23:59.895Z,7.83
2023-05-12T20:27:23.488Z,7.03
2023-05-12T20:30:47.038Z,8.73
2023-05-12T20:34:12.286Z,9.17
2023-05-12T20:37:35.796Z,9.17
2023-05-12T20:41:05.333Z,8.87
2023-05-12T20:44:29.726Z,8.93
2023-05-12T20:47:53.752Z,9.00
2023-05-12T20:51:19.333Z,8.50
2023-05-12T20:54:43.763Z,8.50
2023-05-12T20:58:07.274Z,8.50
2023-05-12T21:01:30.893Z,9.30
2023-05-12T21:04:54.825Z,9.03
2023-05-12T21:08:19.771Z,8.70
2023-05-12T21:11:43.441Z,9.40
2023-05-12T21:15:10.408Z,7.97
2023-05-12T21:18:34.063Z,9.23
2023-05-12T21:21:58.630Z,7.73
2023-05-12T21:25:23.684Z,7.93
2023-05-12T21:28:47.198Z,8.87
2023-05-12T21:32:11.082Z,9.90
2023-05-12T21:35:34.956Z,8.83
2023-05-12T21:38:58.532Z,8.87
2023-05-12T21:42:23.499Z,8.83
2023-05-12T21:45:47.011Z,18.33
2023-05-12T21:49:10.754Z,10.47
2023-05-12T21:52:34.824Z,7.80
2023-05-12T21:55:58.303Z,8.50
2023-05-12T21:59:23.154Z,8.60
2023-05-12T22:02:47.568Z,8.00
2023-05-12T22:06:11.925Z,8.03
2023-05-12T22:09:35.434Z,8.90
2023-05-12T22:12:59.105Z,8.33
2023-05-12T22:16:28.549Z,8.00
2023-05-12T22:19:58.169Z,7.80
2023-05-12T22:23:21.708Z,8.77
2023-05-12T22:26:45.212Z,9.10
2023-05-12T22:30:10.332Z,8.90
2023-05-12T22:33:35.366Z,8.40
2023-05-12T22:36:58.891Z,8.60
2023-05-12T22:40:23.159Z,9.50
2023-05-12T22:43:46.786Z,8.87
2023-05-12T22:47:11.019Z,9.67
2023-05-12T22:50:36.603Z,8.70
2023-05-12T22:54:00.929Z,8.67
2023-05-12T22:57:27.021Z,9.73
2023-05-12T23:00:52.182Z,9.97
2023-05-12T23:04:15.981Z,9.50
2023-05-12T23:07:41.258Z,10.10
2023-05-12T23:11:04.965Z,8.93
2023-05-12T23:14:28.944Z,8.23
2023-05-12T23:17:52.718Z,8.60
2023-05-12T23:21:16.948Z,8.03
2023-05-12T23:24:44.014Z,9.57
2023-05-12T23:28:09.868Z,9.80
2023-05-12T23:31:33.426Z,8.70
2023-05-12T23:34:57.986Z,8.63
2023-05-12T23:38:24.410Z,8.33
2023-05-12T23:41:49.525Z,7.63
2023-05-12T23:45:14.327Z,8.20
2023-05-12T23:48:37.996Z,9.10
2023-05-12T23:52:02.000Z,8.50
2023-05-12T23:55:26.140Z,7.43
2023-05-12T23:58:51.320Z,7.60
